sensor_id;sensor_type;location;lat;lon;timestamp;pressure;altitude;pressure_sealevel;temperature;humidity
48926;BME280;39838;59.938;30.642;2023-05-23T00:02:24;101136.53;;;11.18;77.26
48926;BME280;39838;59.938;30.642;2023-05-23T00:04:53;101142.56;;;11.16;77.03
48926;BME280;39838;59.938;30.642;2023-05-23T00:07:23;101145.16;;;11.14;77.24
48926;BME280;39838;59.938;30.642;2023-05-23T00:09:51;101138.22;;;11.13;77.61
48926;BME280;39838;59.938;30.642;2023-05-23T00:12:18;101135.63;;;11.12;77.43
48926;BME280;39838;59.938;30.642;2023-05-23T00:14:45;101131.28;;;11.11;77.71
48926;BME280;39838;59.938;30.642;2023-05-23T00:17:13;101139.03;;;11.08;77.90
48926;BME280;39838;59.938;30.642;2023-05-23T00:19:42;101127.75;;;11.06;78.16
48926;BME280;39838;59.938;30.642;2023-05-23T00:22:12;101119.88;;;10.97;77.80
48926;BME280;39838;59.938;30.642;2023-05-23T00:24:41;101132.91;;;11.03;78.08
48926;BME280;39838;59.938;30.642;2023-05-23T00:27:08;101135.50;;;11.00;77.98
48926;BME280;39838;59.938;30.642;2023-05-23T00:29:36;101132.88;;;10.97;77.81
48926;BME280;39838;59.938;30.642;2023-05-23T00:32:03;101134.59;;;10.93;78.33
48926;BME280;39838;59.938;30.642;2023-05-23T00:34:30;101138.00;;;10.89;78.31
48926;BME280;39838;59.938;30.642;2023-05-23T00:36:58;101130.19;;;10.84;78.52
48926;BME280;39838;59.938;30.642;2023-05-23T00:39:28;101130.13;;;10.78;78.78
48926;BME280;39838;59.938;30.642;2023-05-23T00:41:56;101102.25;;;10.62;78.80
48926;BME280;39838;59.938;30.642;2023-05-23T00:44:23;101122.28;;;10.72;79.77
48926;BME280;39838;59.938;30.642;2023-05-23T00:46:52;101115.28;;;10.66;80.05
48926;BME280;39838;59.938;30.642;2023-05-23T00:49:21;101123.13;;;10.71;79.94
48926;BME280;39838;59.938;30.642;2023-05-23T00:51:48;101123.13;;;10.71;80.18
48926;BME280;39838;59.938;30.642;2023-05-23T00:54:18;101091.78;;;10.56;79.93
48926;BME280;39838;59.938;30.642;2023-05-23T00:56:48;101124.88;;;10.72;80.10
48926;BME280;39838;59.938;30.642;2023-05-23T00:59:16;101134.41;;;10.75;80.44
48926;BME280;39838;59.938;30.642;2023-05-23T01:01:46;101128.34;;;10.76;79.99
48926;BME280;39838;59.938;30.642;2023-05-23T01:04:14;101126.63;;;10.76;80.34
48926;BME280;39838;59.938;30.642;2023-05-23T01:06:42;101117.97;;;10.76;80.24
48926;BME280;39838;59.938;30.642;2023-05-23T01:09:11;101120.56;;;10.76;80.35
48926;BME280;39838;59.938;30.642;2023-05-23T01:11:44;101103.16;;;10.67;80.49
48926;BME280;39838;59.938;30.642;2023-05-23T01:14:25;101121.41;;;10.75;80.81
48926;BME280;39838;59.938;30.642;2023-05-23T01:16:58;101122.28;;;10.74;81.02
48926;BME280;39838;59.938;30.642;2023-05-23T01:22:35;101130.88;;;10.66;81.63
48926;BME280;39838;59.938;30.642;2023-05-23T01:25:10;101128.25;;;10.63;82.00
48926;BME280;39838;59.938;30.642;2023-05-23T01:27:54;101131.69;;;10.61;81.94
48926;BME280;39838;59.938;30.642;2023-05-23T01:30:23;101117.75;;;10.54;81.84
48926;BME280;39838;59.938;30.642;2023-05-23T01:32:53;101123.88;;;10.61;81.93
48926;BME280;39838;59.938;30.642;2023-05-23T01:35:24;101132.59;;;10.64;82.39
48926;BME280;39838;59.938;30.642;2023-05-23T01:37:52;101131.72;;;10.64;82.33
48926;BME280;39838;59.938;30.642;2023-05-23T01:40:20;101131.75;;;10.67;82.52
48926;BME280;39838;59.938;30.642;2023-05-23T01:42:47;101136.94;;;10.67;82.59
48926;BME280;39838;59.938;30.642;2023-05-23T01:45:16;101126.50;;;10.61;83.28
48926;BME280;39838;59.938;30.642;2023-05-23T01:47:45;101138.69;;;10.68;82.74
48926;BME280;39838;59.938;30.642;2023-05-23T01:50:14;101136.09;;;10.70;82.91
48926;BME280;39838;59.938;30.642;2023-05-23T01:52:42;101132.66;;;10.71;82.91
48926;BME280;39838;59.938;30.642;2023-05-23T01:55:11;101136.16;;;10.76;82.70
48926;BME280;39838;59.938;30.642;2023-05-23T01:57:40;101131.84;;;10.78;82.59
48926;BME280;39838;59.938;30.642;2023-05-23T02:00:09;101131.00;;;10.80;82.74
48926;BME280;39838;59.938;30.642;2023-05-23T02:02:38;101138.81;;;10.83;82.81
48926;BME280;39838;59.938;30.642;2023-05-23T02:05:05;101130.19;;;10.86;83.25
48926;BME280;39838;59.938;30.642;2023-05-23T02:07:33;101123.31;;;10.91;83.68
48926;BME280;39838;59.938;30.642;2023-05-23T02:10:00;101124.19;;;10.94;83.08
48926;BME280;39838;59.938;30.642;2023-05-23T02:12:32;101125.09;;;10.98;83.50
48926;BME280;39838;59.938;30.642;2023-05-23T02:14:59;101123.44;;;11.05;83.48
48926;BME280;39838;59.938;30.642;2023-05-23T02:17:30;101122.56;;;11.09;83.64
48926;BME280;39838;59.938;30.642;2023-05-23T02:19:58;101119.16;;;11.11;83.38
48926;BME280;39838;59.938;30.642;2023-05-23T02:22:26;101120.03;;;11.15;83.50
48926;BME280;39838;59.938;30.642;2023-05-23T02:24:53;101115.72;;;11.18;83.22
48926;BME280;39838;59.938;30.642;2023-05-23T02:27:20;101115.72;;;11.21;82.75
48926;BME280;39838;59.938;30.642;2023-05-23T02:29:48;101108.84;;;11.27;82.86
48926;BME280;39838;59.938;30.642;2023-05-23T02:32:15;101107.16;;;11.32;82.20
48926;BME280;39838;59.938;30.642;2023-05-23T02:34:42;101112.38;;;11.38;82.01
48926;BME280;39838;59.938;30.642;2023-05-23T02:37:17;101108.06;;;11.41;81.65
48926;BME280;39838;59.938;30.642;2023-05-23T02:39:44;101110.66;;;11.43;81.83
48926;BME280;39838;59.938;30.642;2023-05-23T02:42:11;101114.19;;;11.45;81.74
48926;BME280;39838;59.938;30.642;2023-05-23T02:44:38;101107.25;;;11.45;82.00
48926;BME280;39838;59.938;30.642;2023-05-23T02:47:06;101114.19;;;11.48;81.96
48926;BME280;39838;59.938;30.642;2023-05-23T02:49:33;101114.19;;;11.49;81.93
48926;BME280;39838;59.938;30.642;2023-05-23T02:52:00;101116.81;;;11.56;81.96
48926;BME280;39838;59.938;30.642;2023-05-23T02:54:29;101121.19;;;11.61;81.50
48926;BME280;39838;59.938;30.642;2023-05-23T02:56:57;101116.00;;;11.64;81.46
48926;BME280;39838;59.938;30.642;2023-05-23T02:59:24;101122.94;;;11.62;81.39
48926;BME280;39838;59.938;30.642;2023-05-23T03:01:52;101119.41;;;11.56;81.34
48926;BME280;39838;59.938;30.642;2023-05-23T03:04:19;101128.09;;;11.52;81.49
48926;BME280;39838;59.938;30.642;2023-05-23T03:06:47;101127.19;;;11.49;81.68
48926;BME280;39838;59.938;30.642;2023-05-23T03:09:14;101122.84;;;11.50;81.73
48926;BME280;39838;59.938;30.642;2023-05-23T03:11:44;101120.28;;;11.55;81.35
48926;BME280;39838;59.938;30.642;2023-05-23T03:14:11;101123.75;;;11.54;81.66
48926;BME280;39838;59.938;30.642;2023-05-23T03:16:38;101114.22;;;11.57;81.72
48926;BME280;39838;59.938;30.642;2023-05-23T03:19:06;101127.31;;;11.68;81.51
48926;BME280;39838;59.938;30.642;2023-05-23T03:21:33;101112.59;;;11.77;81.20
48926;BME280;39838;59.938;30.642;2023-05-23T03:24:01;101115.25;;;11.82;81.23
48926;BME280;39838;59.938;30.642;2023-05-23T03:26:28;101120.47;;;11.85;81.12
48926;BME280;39838;59.938;30.642;2023-05-23T03:28:57;101110.09;;;11.91;81.25
48926;BME280;39838;59.938;30.642;2023-05-23T03:31:24;101115.31;;;11.97;81.07
48926;BME280;39838;59.938;30.642;2023-05-23T03:33:51;101117.97;;;12.07;81.21
48926;BME280;39838;59.938;30.642;2023-05-23T03:36:19;101115.38;;;12.10;81.21
48926;BME280;39838;59.938;30.642;2023-05-23T03:38:46;101119.72;;;12.12;80.98
48926;BME280;39838;59.938;30.642;2023-05-23T03:41:14;101121.47;;;12.16;81.38
48926;BME280;39838;59.938;30.642;2023-05-23T03:43:41;101111.94;;;12.24;81.34
48926;BME280;39838;59.938;30.642;2023-05-23T03:46:09;101118.91;;;12.32;81.49
48926;BME280;39838;59.938;30.642;2023-05-23T03:48:37;101122.44;;;12.47;80.99
48926;BME280;39838;59.938;30.642;2023-05-23T03:51:04;101127.66;;;12.60;80.89
48926;BME280;39838;59.938;30.642;2023-05-23T03:53:31;101124.19;;;12.71;80.75
48926;BME280;39838;59.938;30.642;2023-05-23T03:55:59;101127.69;;;12.75;80.29
48926;BME280;39838;59.938;30.642;2023-05-23T03:58:26;101124.22;;;12.76;80.25
48926;BME280;39838;59.938;30.642;2023-05-23T04:00:53;101122.47;;;12.76;79.87
48926;BME280;39838;59.938;30.642;2023-05-23T04:03:22;101127.69;;;12.76;79.73
48926;BME280;39838;59.938;30.642;2023-05-23T04:05:50;101125.94;;;12.75;79.89
48926;BME280;39838;59.938;30.642;2023-05-23T04:08:18;101126.81;;;12.74;79.74
48926;BME280;39838;59.938;30.642;2023-05-23T04:10:47;101126.81;;;12.74;79.81
48926;BME280;39838;59.938;30.642;2023-05-23T04:13:14;101127.66;;;12.79;79.82
48926;BME280;39838;59.938;30.642;2023-05-23T04:15:41;101126.81;;;12.87;79.43
48926;BME280;39838;59.938;30.642;2023-05-23T04:18:09;101131.19;;;12.95;79.42
48926;BME280;39838;59.938;30.642;2023-05-23T04:20:38;101121.63;;;13.02;78.84
48926;BME280;39838;59.938;30.642;2023-05-23T04:23:05;101121.63;;;13.02;78.93
48926;BME280;39838;59.938;30.642;2023-05-23T04:25:33;101117.25;;;12.99;78.47
48926;BME280;39838;59.938;30.642;2023-05-23T04:28:00;101111.19;;;13.03;78.75
48926;BME280;39838;59.938;30.642;2023-05-23T04:30:27;101112.06;;;13.08;78.75
48926;BME280;39838;59.938;30.642;2023-05-23T04:32:56;101109.41;;;13.18;78.13
48926;BME280;39838;59.938;30.642;2023-05-23T04:35:25;101112.94;;;13.24;78.08
48926;BME280;39838;59.938;30.642;2023-05-23T04:37:55;101112.06;;;13.36;78.21
48926;BME280;39838;59.938;30.642;2023-05-23T04:40:22;101119.00;;;13.42;77.81
48926;BME280;39838;59.938;30.642;2023-05-23T04:42:49;101120.72;;;13.44;78.15
48926;BME280;39838;59.938;30.642;2023-05-23T04:45:17;101112.00;;;13.51;77.56
48926;BME280;39838;59.938;30.642;2023-05-23T04:47:45;101111.97;;;13.59;77.90
48926;BME280;39838;59.938;30.642;2023-05-23T04:50:12;101107.56;;;13.75;77.60
48926;BME280;39838;59.938;30.642;2023-05-23T04:52:40;101108.41;;;13.89;76.87
48926;BME280;39838;59.938;30.642;2023-05-23T04:55:09;101107.50;;;13.99;76.68
48926;BME280;39838;59.938;30.642;2023-05-23T04:57:36;101112.69;;;14.10;76.34
48926;BME280;39838;59.938;30.642;2023-05-23T05:00:04;101113.53;;;14.13;76.71
48926;BME280;39838;59.938;30.642;2023-05-23T05:02:35;101115.22;;;14.24;76.41
48926;BME280;39838;59.938;30.642;2023-05-23T05:05:03;101115.16;;;14.33;76.27
48926;BME280;39838;59.938;30.642;2023-05-23T05:07:31;101109.88;;;14.43;76.16
48926;BME280;39838;59.938;30.642;2023-05-23T05:10:00;101114.19;;;14.55;75.76
48926;BME280;39838;59.938;30.642;2023-05-23T05:12:31;101108.03;;;14.65;75.66
48926;BME280;39838;59.938;30.642;2023-05-23T05:14:59;101114.03;;;14.78;75.10
48926;BME280;39838;59.938;30.642;2023-05-23T05:17:26;101108.69;;;14.89;75.06
48926;BME280;39838;59.938;30.642;2023-05-23T05:19:54;101119.06;;;15.04;74.46
48926;BME280;39838;59.938;30.642;2023-05-23T05:22:22;101117.19;;;15.15;74.38
48926;BME280;39838;59.938;30.642;2023-05-23T05:24:50;101120.66;;;15.20;74.07
48926;BME280;39838;59.938;30.642;2023-05-23T05:27:17;101114.50;;;15.23;73.77
48926;BME280;39838;59.938;30.642;2023-05-23T05:29:46;101123.19;;;15.31;73.90
48926;BME280;39838;59.938;30.642;2023-05-23T05:32:14;101127.47;;;15.35;73.35
48926;BME280;39838;59.938;30.642;2023-05-23T05:34:42;101119.59;;;15.40;73.04
48926;BME280;39838;59.938;30.642;2023-05-23T05:37:09;101123.91;;;15.45;73.20
48926;BME280;39838;59.938;30.642;2023-05-23T05:39:38;101112.53;;;15.48;72.41
48926;BME280;39838;59.938;30.642;2023-05-23T05:42:06;101111.53;;;15.56;72.08
48926;BME280;39838;59.938;30.642;2023-05-23T05:44:33;101108.88;;;15.64;71.71
48926;BME280;39838;59.938;30.642;2023-05-23T05:47:02;101111.34;;;15.76;71.30
48926;BME280;39838;59.938;30.642;2023-05-23T05:49:29;101109.50;;;15.88;70.84
48926;BME280;39838;59.938;30.642;2023-05-23T05:51:56;101109.34;;;15.98;70.35
48926;BME280;39838;59.938;30.642;2023-05-23T05:54:23;101108.44;;;16.02;69.89
48926;BME280;39838;59.938;30.642;2023-05-23T05:56:51;101108.34;;;16.08;69.73
48926;BME280;39838;59.938;30.642;2023-05-23T05:59:18;101111.00;;;16.07;69.75
48926;BME280;39838;59.938;30.642;2023-05-23T06:01:45;101105.81;;;16.02;69.47
48926;BME280;39838;59.938;30.642;2023-05-23T06:04:14;101099.69;;;16.02;69.58
48926;BME280;39838;59.938;30.642;2023-05-23T06:06:42;101101.41;;;16.06;69.61
48926;BME280;39838;59.938;30.642;2023-05-23T06:09:09;101100.50;;;16.07;69.64
48926;BME280;39838;59.938;30.642;2023-05-23T06:11:37;101106.50;;;16.15;69.71
48926;BME280;39838;59.938;30.642;2023-05-23T06:14:05;101107.28;;;16.22;68.95
48926;BME280;39838;59.938;30.642;2023-05-23T06:16:32;101104.56;;;16.29;68.73
48926;BME280;39838;59.938;30.642;2023-05-23T06:19:00;101114.91;;;16.38;68.61
48926;BME280;39838;59.938;30.642;2023-05-23T06:21:28;101114.03;;;16.41;68.19
48926;BME280;39838;59.938;30.642;2023-05-23T06:23:56;101105.19;;;16.48;67.96
48926;BME280;39838;59.938;30.642;2023-05-23T06:26:23;101100.59;;;16.62;67.83
48926;BME280;39838;59.938;30.642;2023-05-23T06:28:50;101104.81;;;16.73;66.97
48926;BME280;39838;59.938;30.642;2023-05-23T06:31:18;101098.72;;;16.72;66.71
48926;BME280;39838;59.938;30.642;2023-05-23T06:33:45;101106.63;;;16.68;66.72
48926;BME280;39838;59.938;30.642;2023-05-23T06:36:12;101096.25;;;16.58;66.60
48926;BME280;39838;59.938;30.642;2023-05-23T06:38:41;101098.13;;;16.50;67.03
48926;BME280;39838;59.938;30.642;2023-05-23T06:41:08;101105.13;;;16.53;67.39
48926;BME280;39838;59.938;30.642;2023-05-23T06:43:36;101102.38;;;16.60;67.58
48926;BME280;39838;59.938;30.642;2023-05-23T06:46:03;101093.50;;;16.71;67.51
48926;BME280;39838;59.938;30.642;2023-05-23T06:48:31;101092.44;;;16.82;67.24
48926;BME280;39838;59.938;30.642;2023-05-23T06:50:58;101082.63;;;16.92;66.85
48926;BME280;39838;59.938;30.642;2023-05-23T06:53:25;101091.34;;;16.96;66.55
48926;BME280;39838;59.938;30.642;2023-05-23T06:55:54;101092.13;;;16.99;66.32
48926;BME280;39838;59.938;30.642;2023-05-23T06:58:21;101084.13;;;17.07;65.96
48926;BME280;39838;59.938;30.642;2023-05-23T07:00:51;101088.41;;;17.14;65.67
48926;BME280;39838;59.938;30.642;2023-05-23T07:03:18;101088.31;;;17.18;65.56
48926;BME280;39838;59.938;30.642;2023-05-23T07:05:46;101089.06;;;17.25;65.38
48926;BME280;39838;59.938;30.642;2023-05-23T07:08:13;101082.88;;;17.29;64.67
48926;BME280;39838;59.938;30.642;2023-05-23T07:10:41;101075.78;;;17.33;64.99
48926;BME280;39838;59.938;30.642;2023-05-23T07:13:09;101087.03;;;17.39;64.18
48926;BME280;39838;59.938;30.642;2023-05-23T07:15:37;101090.25;;;17.54;63.87
48926;BME280;39838;59.938;30.642;2023-05-23T07:18:04;101087.28;;;17.73;63.93
48926;BME280;39838;59.938;30.642;2023-05-23T07:20:32;101067.00;;;17.80;63.19
48926;BME280;39838;59.938;30.642;2023-05-23T07:22:59;101087.44;;;18.08;63.05
48926;BME280;39838;59.938;30.642;2023-05-23T07:25:27;101085.38;;;18.22;62.34
48926;BME280;39838;59.938;30.642;2023-05-23T07:27:54;101094.75;;;18.34;61.29
48926;BME280;39838;59.938;30.642;2023-05-23T07:30:23;101082.59;;;18.28;60.92
48926;BME280;39838;59.938;30.642;2023-05-23T07:32:50;101085.22;;;18.28;60.68
48926;BME280;39838;59.938;30.642;2023-05-23T07:35:18;101077.44;;;18.25;59.80
48926;BME280;39838;59.938;30.642;2023-05-23T07:37:48;101076.75;;;18.17;59.42
48926;BME280;39838;59.938;30.642;2023-05-23T07:40:16;101076.88;;;18.11;59.07
48926;BME280;39838;59.938;30.642;2023-05-23T07:42:43;101074.97;;;18.17;59.30
48926;BME280;39838;59.938;30.642;2023-05-23T07:45:11;101076.53;;;18.26;58.58
48926;BME280;39838;59.938;30.642;2023-05-23T07:47:40;101078.38;;;18.21;57.94
48926;BME280;39838;59.938;30.642;2023-05-23T07:50:08;101074.13;;;18.15;58.40
48926;BME280;39838;59.938;30.642;2023-05-23T07:52:35;101076.59;;;18.23;58.05
48926;BME280;39838;59.938;30.642;2023-05-23T07:55:03;101072.97;;;18.27;57.35
48926;BME280;39838;59.938;30.642;2023-05-23T07:57:30;101072.94;;;18.28;56.64
48926;BME280;39838;59.938;30.642;2023-05-23T07:59:58;101068.41;;;18.35;56.37
48926;BME280;39838;59.938;30.642;2023-05-23T08:02:25;101077.00;;;18.43;56.71
48926;BME280;39838;59.938;30.642;2023-05-23T08:04:54;101075.13;;;18.48;56.03
48926;BME280;39838;59.938;30.642;2023-05-23T08:07:21;101078.56;;;18.52;55.81
48926;BME280;39838;59.938;30.642;2023-05-23T08:09:49;101073.16;;;18.58;55.52
48926;BME280;39838;59.938;30.642;2023-05-23T08:12:17;101075.78;;;18.58;55.56
48926;BME280;39838;59.938;30.642;2023-05-23T08:14:44;101066.88;;;18.64;55.09
48926;BME280;39838;59.938;30.642;2023-05-23T08:17:12;101075.69;;;18.61;54.98
48926;BME280;39838;59.938;30.642;2023-05-23T08:19:39;101072.19;;;18.61;55.02
48926;BME280;39838;59.938;30.642;2023-05-23T08:22:08;101075.59;;;18.66;55.17
48926;BME280;39838;59.938;30.642;2023-05-23T08:24:35;101076.53;;;18.63;54.86
48926;BME280;39838;59.938;30.642;2023-05-23T08:27:03;101074.78;;;18.64;54.65
48926;BME280;39838;59.938;30.642;2023-05-23T08:29:31;101080.66;;;18.75;54.68
48926;BME280;39838;59.938;30.642;2023-05-23T08:31:59;101077.13;;;18.76;54.42
48926;BME280;39838;59.938;30.642;2023-05-23T08:34:27;101064.66;;;18.82;54.33
48926;BME280;39838;59.938;30.642;2023-05-23T08:36:54;101073.22;;;18.92;54.63
48926;BME280;39838;59.938;30.642;2023-05-23T08:39:23;101065.97;;;19.00;54.09
48926;BME280;39838;59.938;30.642;2023-05-23T08:41:50;101058.72;;;19.08;54.18
48926;BME280;39838;59.938;30.642;2023-05-23T08:44:18;101053.56;;;19.05;53.18
48926;BME280;39838;59.938;30.642;2023-05-23T08:46:46;101062.47;;;19.00;53.20
48926;BME280;39838;59.938;30.642;2023-05-23T08:49:16;101054.84;;;18.89;52.91
48926;BME280;39838;59.938;30.642;2023-05-23T08:51:44;101057.97;;;19.05;52.74
48926;BME280;39838;59.938;30.642;2023-05-23T08:54:13;101054.97;;;19.19;52.30
48926;BME280;39838;59.938;30.642;2023-05-23T08:56:42;101056.53;;;19.26;51.33
48926;BME280;39838;59.938;30.642;2023-05-23T08:59:10;101056.09;;;19.41;51.22
48926;BME280;39838;59.938;30.642;2023-05-23T09:01:39;101059.72;;;19.37;50.91
48926;BME280;39838;59.938;30.642;2023-05-23T09:04:07;101057.22;;;19.32;51.44
48926;BME280;39838;59.938;30.642;2023-05-23T09:06:36;101051.81;;;19.37;51.05
48926;BME280;39838;59.938;30.642;2023-05-23T09:09:03;101056.78;;;19.48;50.81
48926;BME280;39838;59.938;30.642;2023-05-23T09:11:31;101056.63;;;19.54;50.60
48926;BME280;39838;59.938;30.642;2023-05-23T09:14:00;101050.25;;;19.62;50.23
48926;BME280;39838;59.938;30.642;2023-05-23T09:16:33;101052.50;;;19.76;50.27
48926;BME280;39838;59.938;30.642;2023-05-23T09:19:09;101050.47;;;19.84;48.20
48926;BME280;39838;59.938;30.642;2023-05-23T09:21:41;101050.31;;;19.90;48.29
48926;BME280;39838;59.938;30.642;2023-05-23T09:24:09;101056.25;;;19.97;47.86
48926;BME280;39838;59.938;30.642;2023-05-23T09:26:36;101054.69;;;19.92;45.94
48926;BME280;39838;59.938;30.642;2023-05-23T09:29:06;101045.25;;;19.83;46.08
48926;BME280;39838;59.938;30.642;2023-05-23T09:31:33;101059.75;;;19.99;46.02
48926;BME280;39838;59.938;30.642;2023-05-23T09:34:01;101056.91;;;20.05;45.27
48926;BME280;39838;59.938;30.642;2023-05-23T09:36:28;101060.38;;;20.07;45.46
48926;BME280;39838;59.938;30.642;2023-05-23T09:39:01;101050.53;;;20.12;45.33
48926;BME280;39838;59.938;30.642;2023-05-23T09:41:29;101055.34;;;20.28;45.09
48926;BME280;39838;59.938;30.642;2023-05-23T09:44:04;101051.66;;;20.33;44.24
48926;BME280;39838;59.938;30.642;2023-05-23T09:46:36;101054.81;;;20.44;43.46
48926;BME280;39838;59.938;30.642;2023-05-23T09:49:14;101047.63;;;20.50;43.56
48926;BME280;39838;59.938;30.642;2023-05-23T09:51:43;101036.72;;;20.60;42.78
48926;BME280;39838;59.938;30.642;2023-05-23T09:54:10;101038.44;;;20.61;42.42
48926;BME280;39838;59.938;30.642;2023-05-23T09:56:39;101022.88;;;20.54;42.73
48926;BME280;39838;59.938;30.642;2023-05-23T09:59:09;101044.00;;;20.79;43.28
48926;BME280;39838;59.938;30.642;2023-05-23T10:01:41;101047.97;;;20.92;42.81
48926;BME280;39838;59.938;30.642;2023-05-23T10:04:11;101050.19;;;21.04;42.42
48926;BME280;39838;59.938;30.642;2023-05-23T10:06:43;101051.75;;;21.10;42.43
48926;BME280;39838;59.938;30.642;2023-05-23T10:09:16;101047.47;;;21.07;42.59
48926;BME280;39838;59.938;30.642;2023-05-23T10:15:11;101038.00;;;21.25;42.45
48926;BME280;39838;59.938;30.642;2023-05-23T10:17:50;101041.91;;;21.40;42.76
48926;BME280;39838;59.938;30.642;2023-05-23T10:20:23;101045.03;;;21.51;42.20
48926;BME280;39838;59.938;30.642;2023-05-23T10:22:51;101045.72;;;21.56;42.07
48926;BME280;39838;59.938;30.642;2023-05-23T10:25:19;101042.16;;;21.57;42.01
48926;BME280;39838;59.938;30.642;2023-05-23T10:27:48;101041.25;;;21.58;42.53
48926;BME280;39838;59.938;30.642;2023-05-23T10:30:15;101044.41;;;21.68;42.29
48926;BME280;39838;59.938;30.642;2023-05-23T10:32:44;101039.06;;;21.69;42.21
48926;BME280;39838;59.938;30.642;2023-05-23T10:35:16;101042.94;;;21.59;42.06
48926;BME280;39838;59.938;30.642;2023-05-23T10:37:51;101046.59;;;21.57;42.40
48926;BME280;39838;59.938;30.642;2023-05-23T10:40:30;101046.44;;;21.61;41.28
48926;BME280;39838;59.938;30.642;2023-05-23T10:43:02;101042.56;;;21.70;41.73
48926;BME280;39838;59.938;30.642;2023-05-23T10:45:39;101038.25;;;21.91;42.01
48926;BME280;39838;59.938;30.642;2023-05-23T10:48:20;101035.59;;;22.14;41.24
48926;BME280;39838;59.938;30.642;2023-05-23T10:51:01;101041.88;;;22.33;40.40
48926;BME280;39838;59.938;30.642;2023-05-23T10:53:30;101024.03;;;22.39;39.77
48926;BME280;39838;59.938;30.642;2023-05-23T10:55:58;101041.63;;;22.40;39.93
48926;BME280;39838;59.938;30.642;2023-05-23T10:58:28;101037.13;;;22.42;40.39
48926;BME280;39838;59.938;30.642;2023-05-23T11:01:00;101037.00;;;22.45;40.33
48926;BME280;39838;59.938;30.642;2023-05-23T11:03:37;101029.50;;;22.56;40.45
48926;BME280;39838;59.938;30.642;2023-05-23T11:06:28;101027.94;;;22.72;39.86
48926;BME280;39838;59.938;30.642;2023-05-23T11:09:02;101024.66;;;22.87;38.89
48926;BME280;39838;59.938;30.642;2023-05-23T11:11:50;101037.63;;;22.94;38.74
48926;BME280;39838;59.938;30.642;2023-05-23T11:14:18;101030.63;;;22.93;39.07
48926;BME280;39838;59.938;30.642;2023-05-23T11:16:46;101022.94;;;22.86;38.03
48926;BME280;39838;59.938;30.642;2023-05-23T11:19:25;101022.22;;;22.81;38.08
48926;BME280;39838;59.938;30.642;2023-05-23T11:21:55;101030.13;;;22.83;37.90
48926;BME280;39838;59.938;30.642;2023-05-23T11:24:46;101019.84;;;22.75;38.16
48926;BME280;39838;59.938;30.642;2023-05-23T11:27:14;101012.22;;;22.68;38.03
48926;BME280;39838;59.938;30.642;2023-05-23T11:29:54;101003.56;;;22.64;37.97
48926;BME280;39838;59.938;30.642;2023-05-23T11:32:22;101006.38;;;22.59;38.70
48926;BME280;39838;59.938;30.642;2023-05-23T11:34:51;101003.41;;;22.67;38.93
48926;BME280;39838;59.938;30.642;2023-05-23T11:37:19;101001.38;;;22.74;37.99
48926;BME280;39838;59.938;30.642;2023-05-23T11:39:48;100994.50;;;22.70;37.71
48926;BME280;39838;59.938;30.642;2023-05-23T11:42:15;100990.44;;;22.61;37.73
48926;BME280;39838;59.938;30.642;2023-05-23T11:44:43;100978.03;;;22.41;37.47
48926;BME280;39838;59.938;30.642;2023-05-23T11:47:11;100988.97;;;22.54;37.21
48926;BME280;39838;59.938;30.642;2023-05-23T11:49:39;100989.56;;;22.60;36.99
48926;BME280;39838;59.938;30.642;2023-05-23T11:52:07;100993.75;;;22.66;36.86
48926;BME280;39838;59.938;30.642;2023-05-23T11:54:35;100986.47;;;22.71;36.12
48926;BME280;39838;59.938;30.642;2023-05-23T11:57:02;100983.56;;;22.77;36.35
48926;BME280;39838;59.938;30.642;2023-05-23T11:59:30;100977.09;;;22.84;35.94
48926;BME280;39838;59.938;30.642;2023-05-23T12:01:57;100975.66;;;22.98;35.89
48926;BME280;39838;59.938;30.642;2023-05-23T12:04:25;100963.44;;;23.14;35.73
48926;BME280;39838;59.938;30.642;2023-05-23T12:06:52;100982.03;;;23.33;36.28
48926;BME280;39838;59.938;30.642;2023-05-23T12:09:21;100975.03;;;23.51;36.08
48926;BME280;39838;59.938;30.642;2023-05-23T12:11:50;100973.06;;;23.54;36.01
48926;BME280;39838;59.938;30.642;2023-05-23T12:14:17;100970.22;;;23.96;35.97
48926;BME280;39838;59.938;30.642;2023-05-23T12:16:45;100967.28;;;24.39;35.65
48926;BME280;39838;59.938;30.642;2023-05-23T12:19:13;100971.91;;;24.87;34.64
48926;BME280;39838;59.938;30.642;2023-05-23T12:21:42;100957.38;;;25.27;34.55
48926;BME280;39838;59.938;30.642;2023-05-23T12:24:13;100971.63;;;25.91;34.05
48926;BME280;39838;59.938;30.642;2023-05-23T12:26:52;100964.28;;;26.42;33.33
48926;BME280;39838;59.938;30.642;2023-05-23T12:29:20;100961.44;;;26.89;31.98
48926;BME280;39838;59.938;30.642;2023-05-23T12:31:49;100959.78;;;27.17;31.39
48926;BME280;39838;59.938;30.642;2023-05-23T12:34:19;100957.69;;;27.63;31.00
48926;BME280;39838;59.938;30.642;2023-05-23T12:36:46;100968.09;;;28.09;30.16
48926;BME280;39838;59.938;30.642;2023-05-23T12:39:15;100957.47;;;28.62;29.61
48926;BME280;39838;59.938;30.642;2023-05-23T12:41:43;100960.44;;;28.97;28.76
48926;BME280;39838;59.938;30.642;2023-05-23T12:44:14;100951.81;;;29.43;27.90
48926;BME280;39838;59.938;30.642;2023-05-23T12:46:42;100950.25;;;30.01;27.73
48926;BME280;39838;59.938;30.642;2023-05-23T12:49:10;100948.06;;;30.54;27.01
48926;BME280;39838;59.938;30.642;2023-05-23T12:51:37;100956.09;;;30.89;26.67
48926;BME280;39838;59.938;30.642;2023-05-23T12:54:05;100954.09;;;31.37;26.25
48926;BME280;39838;59.938;30.642;2023-05-23T12:56:32;100954.19;;;31.58;25.69